• Join FlightAware (Why Join?)
  • Login
  • US Flag 
06:07AM EDT


 

Airport Tracker/Info


-or-


 

Live Flight TrackerFlight Track Log ✈ SLI2335 ✈ 28-Apr-2013 ✈ MMHO / HMO - MMCU / CUU

Flight Track Log - Related Links

Times and Time Zones

All times are in EDT time to prevent confusion due to time zone crossing. See the SLI2335 flight status page for this flight to view local times or setup timezone preferences in your user account.

Time Position Orientation Groundspeed Altitude Reporting Facility
EDT Latitude Longitude Course Direction KTS MPH feet Rate Location/Type
07:36PM 29.0810 -110.7970 94° East  Level Estimated
07:37PM 29.0760 -110.7134 94° East  Level Estimated
07:38PM 29.0709 -110.6298 94° East  Level Estimated
07:39PM 29.0657 -110.5462 94° East  Level Estimated
07:40PM 29.0605 -110.4627 94° East  Level Estimated
07:41PM 29.0552 -110.3791 94° East  Level Estimated
07:42PM 29.0499 -110.2955 94° East  Level Estimated
07:43PM 29.0445 -110.2120 94° East  Level Estimated
07:44PM 29.0391 -110.1284 94° East  Level Estimated
07:45PM 29.0337 -110.0449 94° East  Level Estimated
07:46PM 29.0281 -109.9614 94° East  Level Estimated
07:47PM 29.0226 -109.8779 94° East  Level Estimated
07:48PM 29.0170 -109.7944 94° East  Level Estimated
07:49PM 29.0113 -109.7109 94° East  Level Estimated
07:50PM 29.0056 -109.6274 94° East  Level Estimated
07:51PM 28.9998 -109.5439 95° East  Level Estimated
07:52PM 28.9939 -109.4605 95° East  Level Estimated
07:53PM 28.9881 -109.3770 95° East  Level Estimated
07:54PM 28.9821 -109.2935 95° East  Level Estimated
07:55PM 28.9762 -109.2101 95° East  Level Estimated
07:56PM 28.9701 -109.1267 95° East  Level Estimated
07:57PM 28.9640 -109.0433 95° East  Level Estimated
07:58PM 28.9579 -108.9598 95° East  Level Estimated
07:59PM 28.9517 -108.8764 95° East  Level Estimated
08:00PM 28.9455 -108.7931 95° East  Level Estimated
08:01PM 28.9392 -108.7097 95° East  Level Estimated
08:02PM 28.9328 -108.6263 95° East  Level Estimated
08:03PM 28.9264 -108.5430 95° East  Level Estimated
08:04PM 28.9200 -108.4596 95° East  Level Estimated
08:05PM 28.9135 -108.3763 95° East  Level Estimated
08:06PM 28.9069 -108.2929 95° East  Level Estimated
08:07PM 28.9003 -108.2096 95° East  Level Estimated
08:08PM 28.8937 -108.1263 95° East  Level Estimated
08:09PM 28.8870 -108.0430 95° East  Level Estimated
08:10PM 28.8802 -107.9597 95° East  Level Estimated
08:11PM 28.8734 -107.8764 95° East  Level Estimated
08:12PM 28.8666 -107.7932 95° East  Level Estimated
08:13PM 28.8597 -107.7099 95° East  Level Estimated
08:14PM 28.8527 -107.6267 95° East  Level Estimated
08:15PM 28.8457 -107.5435 95° East  Level Estimated
08:16PM 28.8386 -107.4603 96° East  Level Estimated
08:17PM 28.8315 -107.3770 96° East  Level Estimated
08:18PM 28.8244 -107.2938 96° East  Level Estimated
08:19PM 28.8172 -107.2107 96° East  Level Estimated
08:20PM 28.8099 -107.1275 96° East  Level Estimated
08:21PM 28.8026 -107.0443 96° East  Level Estimated
08:22PM 28.7952 -106.9612 96° East  Level Estimated
08:23PM 28.7878 -106.8780 96° East  Level Estimated
08:24PM 28.7803 -106.7949 96° East  Level Estimated
08:25PM 28.7728 -106.7118 96° East  Level Estimated
08:26PM 28.7652 -106.6287 96° East  Level Estimated
08:27PM 28.7576 -106.5456 96° East  Level Estimated
08:28PM 28.7499 -106.4625 96° East  Level Estimated
08:29PM 28.7422 -106.3795 96° East  Level Estimated
08:30PM 28.7344 -106.2964 96° East  Level Estimated
08:31PM 28.7266 -106.2134 96° East  Level Estimated
08:32PM 28.7188 -106.1303 96° East  Level Estimated
08:33PM 28.7108 -106.0473 96° East  Level Estimated